Time;durP1;ratioP1;P1;durP2;ratioP2;P2;SDS_P1;SDS_P2;PMS_P1;PMS_P2;Temp;Humidity;BMP_temperature;BMP_pressure;BME280_temperature;BME280_humidity;BME280_pressure;Samples;Min_cycle;Max_cycle;Signal;HPM_P1;HPM_P2
2022/10/11 00:01:15;;;;;;;19.85;8.32;;;;;;;13.39;100.00;96728.50;5042109;28;20225;-71
2022/10/11 00:03:42;;;;;;;18.30;8.07;;;;;;;13.37;100.00;96740.28;5041666;28;20221;-71
2022/10/11 00:06:08;;;;;;;23.52;9.15;;;;;;;13.35;100.00;96738.81;5042255;28;20220;-71
2022/10/11 00:08:35;;;;;;;21.40;8.65;;;;;;;13.43;100.00;96732.41;5042521;28;20193;-71
2022/10/11 00:11:05;;;;;;;15.25;7.38;;;;;;;13.48;100.00;96734.53;5042217;28;20229;-71
2022/10/11 00:13:32;;;;;;;17.25;6.45;;;;;;;13.52;100.00;96738.47;5041849;28;20204;-70
2022/10/11 00:16:00;;;;;;;17.48;6.93;;;;;;;13.54;100.00;96729.31;5042336;28;20216;-71
2022/10/11 00:18:27;;;;;;;17.55;6.75;;;;;;;13.50;100.00;96727.22;5041918;28;20677;-70
2022/10/11 00:21:01;;;;;;;18.65;6.88;;;;;;;13.57;100.00;96734.25;5042067;28;20240;-70
2022/10/11 00:23:27;;;;;;;19.00;7.60;;;;;;;13.46;100.00;96733.88;5041389;28;20235;-71
2022/10/11 00:25:57;;;;;;;28.92;9.15;;;;;;;13.53;100.00;96738.28;5041995;28;20386;-70
2022/10/11 00:28:23;;;;;;;20.42;7.43;;;;;;;13.41;100.00;96741.53;5042170;28;21225;-71
2022/10/11 00:30:50;;;;;;;18.90;7.53;;;;;;;13.42;100.00;96736.06;5042394;28;20243;-72
2022/10/11 00:33:18;;;;;;;13.75;6.05;;;;;;;13.49;100.00;96736.16;5041202;28;20197;-69
2022/10/11 00:35:44;;;;;;;17.83;6.00;;;;;;;13.39;100.00;96725.84;5041854;28;20487;-69
2022/10/11 00:38:11;;;;;;;16.40;6.03;;;;;;;13.38;100.00;96735.78;5041792;28;20209;-69
2022/10/11 00:40:37;;;;;;;16.17;6.43;;;;;;;13.30;100.00;96726.13;5041899;28;20221;-71
2022/10/11 00:43:04;;;;;;;12.27;5.50;;;;;;;13.33;100.00;96728.41;5041084;28;20236;-71
2022/10/11 00:46:12;;;;;;;14.95;4.95;;;;;;;13.51;100.00;96729.69;5042125;28;20585;-71
2022/10/11 00:48:44;;;;;;;11.45;4.88;;;;;;;13.46;100.00;96724.09;5041583;28;20216;-71
2022/10/11 00:51:16;;;;;;;7.53;3.90;;;;;;;13.46;100.00;96721.44;5043003;28;20286;-71
2022/10/11 00:53:43;;;;;;;7.50;3.83;;;;;;;13.38;100.00;96721.56;5045005;28;20280;-71
2022/10/11 00:56:17;;;;;;;8.50;4.07;;;;;;;13.46;100.00;96716.16;5045697;28;20205;-71
2022/10/11 00:58:43;;;;;;;10.65;3.50;;;;;;;13.37;100.00;96718.28;5045429;28;20208;-71
2022/10/11 01:01:11;;;;;;;8.63;4.07;;;;;;;13.35;100.00;96721.09;5045260;28;20228;-70
2022/10/11 01:03:40;;;;;;;7.20;3.75;;;;;;;13.39;100.00;96715.25;5045025;28;20228;-71
2022/10/11 01:06:07;;;;;;;7.97;4.03;;;;;;;13.37;100.00;96720.94;5045199;28;20205;-71
2022/10/11 01:08:34;;;;;;;11.35;3.90;;;;;;;13.38;100.00;96710.16;5045338;28;20220;-69
2022/10/11 01:11:02;;;;;;;8.82;3.97;;;;;;;13.38;100.00;96714.59;5045093;28;20717;-68
2022/10/11 01:13:40;;;;;;;9.77;4.20;;;;;;;13.43;100.00;96716.53;5044599;28;20197;-70
2022/10/11 01:16:13;;;;;;;11.07;4.25;;;;;;;13.40;100.00;96724.84;5045499;28;20209;-71
2022/10/11 01:18:48;;;;;;;7.05;3.97;;;;;;;13.41;100.00;96723.00;5045460;28;20233;-68
2022/10/11 01:21:26;;;;;;;11.13;4.03;;;;;;;13.35;100.00;96723.72;5044649;28;20224;-70
2022/10/11 01:24:07;;;;;;;8.82;4.22;;;;;;;13.44;100.00;96726.13;5044267;28;20229;-71
2022/10/11 01:27:09;;;;;;;9.70;4.63;;;;;;;13.40;100.00;96727.50;5045009;28;20204;-71
2022/10/11 01:29:48;;;;;;;16.88;4.60;;;;;;;13.34;100.00;96729.22;5032307;28;20677;-68
2022/10/11 01:32:19;;;;;;;12.25;4.63;;;;;;;13.30;100.00;96725.28;5044612;28;20229;-71
2022/10/11 01:34:55;;;;;;;13.85;4.65;;;;;;;13.35;100.00;96730.88;5045091;28;20209;-71
2022/10/11 01:37:28;;;;;;;17.38;5.00;;;;;;;13.34;100.00;96721.28;5045092;28;20247;-71
2022/10/11 01:40:02;;;;;;;9.93;4.43;;;;;;;13.36;100.00;96716.63;5044958;28;20212;-68
2022/10/11 01:42:30;;;;;;;12.38;4.63;;;;;;;13.32;100.00;96726.75;5044003;28;20588;-69
2022/10/11 01:44:58;;;;;;;14.02;4.50;;;;;;;13.33;100.00;96730.22;5044288;28;20225;-71
2022/10/11 01:47:26;;;;;;;11.50;4.43;;;;;;;13.33;100.00;96725.75;5044494;28;20582;-71
2022/10/11 01:49:55;;;;;;;7.78;4.40;;;;;;;13.28;100.00;96729.97;5044827;28;20777;-70
2022/10/11 01:52:24;;;;;;;7.75;4.40;;;;;;;13.31;100.00;96740.19;5043915;28;21222;-69
2022/10/11 01:55:06;;;;;;;10.93;4.13;;;;;;;13.39;100.00;96735.63;5044444;28;20215;-71
2022/10/11 01:57:52;;;;;;;10.88;4.18;;;;;;;13.42;100.00;96736.06;5044472;28;20205;-70
2022/10/11 02:00:21;;;;;;;10.32;4.22;;;;;;;13.37;100.00;96734.97;5044534;28;20212;-71
2022/10/11 02:03:08;;;;;;;7.40;4.30;;;;;;;13.48;100.00;96739.84;5043151;28;20213;-71
2022/10/11 02:05:40;;;;;;;12.05;4.78;;;;;;;13.43;100.00;96735.06;5044296;28;20209;-69
2022/10/11 02:08:15;;;;;;;15.77;4.55;;;;;;;13.41;100.00;96734.41;5044262;28;20669;-71
2022/10/11 02:10:46;;;;;;;11.48;4.93;;;;;;;13.42;100.00;96736.06;5044123;28;21119;-71
2022/10/11 02:13:18;;;;;;;14.30;4.57;;;;;;;13.42;100.00;96740.53;5043479;28;20456;-71
2022/10/11 02:15:48;;;;;;;9.63;4.30;;;;;;;13.36;100.00;96740.47;5044421;28;20201;-68
2022/10/11 02:18:23;;;;;;;8.43;4.43;;;;;;;13.35;100.00;96739.63;5044302;28;20201;-69
2022/10/11 02:20:52;;;;;;;10.55;4.47;;;;;;;13.34;100.00;96747.75;5043912;28;20374;-68
2022/10/11 02:23:26;;;;;;;10.50;4.53;;;;;;;13.33;100.00;96744.28;5043311;28;20615;-71
2022/10/11 02:25:56;;;;;;;12.05;4.72;;;;;;;13.32;100.00;96744.47;5043842;28;20200;-69
2022/10/11 02:28:29;;;;;;;12.88;4.90;;;;;;;13.36;100.00;96745.75;5044010;28;20216;-71
2022/10/11 02:30:58;;;;;;;8.50;4.57;;;;;;;13.27;100.00;96754.78;5043904;28;20225;-71
2022/10/11 02:33:30;;;;;;;11.43;4.60;;;;;;;13.32;100.00;96752.41;5043061;28;20209;-70
2022/10/11 02:36:00;;;;;;;11.18;4.25;;;;;;;13.30;100.00;96751.75;5043997;28;20201;-71
2022/10/11 02:38:34;;;;;;;15.13;4.63;;;;;;;13.27;100.00;96752.13;5043795;28;20224;-71
2022/10/11 02:41:11;;;;;;;11.52;5.10;;;;;;;13.28;100.00;96744.00;5043405;28;20229;-70
2022/10/11 02:43:41;;;;;;;11.73;5.03;;;;;;;13.22;100.00;96750.00;5042842;28;20228;-69
2022/10/11 02:46:09;;;;;;;12.38;4.70;;;;;;;13.19;100.00;96754.88;5043835;28;20201;-68
2022/10/11 02:48:38;;;;;;;12.55;4.25;;;;;;;13.17;100.00;96755.03;5043459;28;20304;-71
2022/10/11 02:51:05;;;;;;;12.15;4.28;;;;;;;13.08;100.00;96750.00;5043381;28;20233;-70
2022/10/11 02:53:32;;;;;;;10.73;4.43;;;;;;;13.02;100.00;96756.84;5040620;28;20203;-71
2022/10/11 02:55:58;;;;;;;9.40;4.15;;;;;;;13.04;100.00;96760.09;5043341;28;20295;-71
2022/10/11 02:58:25;;;;;;;13.23;4.90;;;;;;;13.03;100.00;96763.75;5043187;28;20215;-70
2022/10/11 03:00:52;;;;;;;10.90;4.40;;;;;;;12.99;100.00;96759.00;5042988;28;20221;-68
2022/10/11 03:03:18;;;;;;;10.60;4.57;;;;;;;12.97;100.00;96761.00;5042725;28;20207;-68
2022/10/11 03:05:46;;;;;;;10.40;4.40;;;;;;;13.02;100.00;96766.56;5043385;28;20216;-71
2022/10/11 03:08:15;;;;;;;8.88;4.35;;;;;;;13.00;100.00;96765.94;5043070;28;20202;-71
2022/10/11 03:10:42;;;;;;;7.72;4.18;;;;;;;12.92;100.00;96766.03;5043039;28;20248;-70
2022/10/11 03:13:09;;;;;;;12.30;4.35;;;;;;;12.90;100.00;96766.19;5041853;28;20780;-68
2022/10/11 03:15:35;;;;;;;8.38;3.88;;;;;;;12.92;100.00;96774.78;5042894;28;20613;-70
2022/10/11 03:18:02;;;;;;;14.68;4.13;;;;;;;12.93;100.00;96765.84;5042655;28;20212;-71
2022/10/11 03:20:28;;;;;;;11.40;4.35;;;;;;;12.90;100.00;96768.03;5043193;28;20586;-71
2022/10/11 03:22:56;;;;;;;12.48;5.13;;;;;;;12.96;100.00;96770.78;5042428;28;20205;-71
2022/10/11 03:25:23;;;;;;;10.57;4.65;;;;;;;12.89;100.00;96780.44;5042685;28;20598;-70
2022/10/11 03:27:50;;;;;;;16.92;4.53;;;;;;;12.86;100.00;96775.47;5042815;28;20292;-68
2022/10/11 03:30:16;;;;;;;8.82;4.20;;;;;;;12.88;100.00;96785.88;5042732;28;20209;-71
2022/10/11 03:32:43;;;;;;;11.30;4.88;;;;;;;12.86;100.00;96780.78;5041708;28;20208;-70
2022/10/11 03:35:10;;;;;;;9.65;4.47;;;;;;;12.81;100.00;96782.28;5042671;28;20202;-71
2022/10/11 03:37:36;;;;;;;9.30;4.60;;;;;;;12.74;100.00;96780.50;5042621;28;20681;-72
2022/10/11 03:40:05;;;;;;;14.38;4.43;;;;;;;12.81;100.00;96784.91;5042438;28;20638;-71
2022/10/11 03:42:32;;;;;;;10.57;4.70;;;;;;;12.71;100.00;96786.97;5042296;28;20309;-73
2022/10/11 03:45:00;;;;;;;17.95;4.88;;;;;;;12.68;100.00;96790.00;5042528;28;20228;-72
2022/10/11 03:47:27;;;;;;;14.68;4.43;;;;;;;12.67;100.00;96793.63;5042422;28;20201;-71
2022/10/11 03:49:53;;;;;;;14.85;4.72;;;;;;;12.64;100.00;96796.63;5042326;28;20250;-70
2022/10/11 03:52:20;;;;;;;17.63;5.53;;;;;;;12.65;100.00;96800.09;5041707;28;20597;-71
2022/10/11 03:54:46;;;;;;;13.05;4.85;;;;;;;12.59;100.00;96796.34;5042090;28;20205;-70
2022/10/11 03:57:15;;;;;;;15.50;4.80;;;;;;;12.62;100.00;96803.09;5042258;28;20292;-72
2022/10/11 03:59:41;;;;;;;11.88;5.22;;;;;;;12.53;100.00;96790.94;5042300;28;20895;-72
2022/10/11 04:02:08;;;;;;;8.48;4.88;;;;;;;12.48;100.00;96796.72;5042046;28;20225;-71
2022/10/11 04:04:34;;;;;;;11.82;4.82;;;;;;;12.53;100.00;96804.13;5041800;28;20653;-71
2022/10/11 04:07:01;;;;;;;12.25;4.80;;;;;;;12.50;100.00;96800.03;5042437;28;20376;-70
2022/10/11 04:09:27;;;;;;;13.82;5.13;;;;;;;12.61;100.00;96812.00;5042252;28;20197;-71
2022/10/11 04:11:54;;;;;;;8.55;4.70;;;;;;;12.60;100.00;96805.06;5041996;28;20225;-71
2022/10/11 04:14:22;;;;;;;9.00;4.70;;;;;;;12.69;100.00;96806.66;5041535;28;20204;-71
2022/10/11 04:16:48;;;;;;;12.82;5.07;;;;;;;12.56;100.00;96807.22;5042134;28;20583;-71
2022/10/11 04:19:15;;;;;;;8.40;4.60;;;;;;;12.51;100.00;96799.03;5042216;28;20209;-71
2022/10/11 04:21:42;;;;;;;11.80;5.20;;;;;;;12.54;100.00;96806.59;5042228;28;20221;-69
2022/10/11 04:24:10;;;;;;;15.30;4.97;;;;;;;12.62;100.00;96806.53;5040969;28;20710;-70
2022/10/11 04:26:37;;;;;;;12.23;5.13;;;;;;;12.62;100.00;96809.19;5045565;28;20197;-70
2022/10/11 04:29:04;;;;;;;14.35;5.55;;;;;;;12.66;100.00;96810.47;5045751;28;20223;-71
2022/10/11 04:31:32;;;;;;;12.50;5.60;;;;;;;12.73;100.00;96806.16;5046171;28;20274;-68
2022/10/11 04:33:58;;;;;;;14.03;5.47;;;;;;;12.65;100.00;96810.66;5045625;28;20205;-71
2022/10/11 04:36:25;;;;;;;11.20;5.00;;;;;;;12.62;100.00;96814.47;5045828;28;20212;-71
2022/10/11 04:38:54;;;;;;;12.38;5.10;;;;;;;12.54;100.00;96806.59;5046474;28;20197;-71
2022/10/11 04:41:21;;;;;;;14.07;5.65;;;;;;;12.44;100.00;96811.28;5046107;28;20252;-69
2022/10/11 04:43:48;;;;;;;12.93;5.97;;;;;;;12.40;100.00;96814.47;5045003;28;20211;-69
2022/10/11 04:46:14;;;;;;;13.27;5.50;;;;;;;12.41;100.00;96816.94;5045956;28;20205;-71
2022/10/11 04:48:42;;;;;;;12.65;5.53;;;;;;;12.47;100.00;96816.22;5045842;28;20210;-71
2022/10/11 04:51:09;;;;;;;13.75;6.00;;;;;;;12.44;100.00;96821.06;5045372;28;20316;-71
2022/10/11 04:53:36;;;;;;;13.23;5.25;;;;;;;12.43;100.00;96820.22;5045314;28;20547;-69
2022/10/11 04:56:04;;;;;;;11.48;4.90;;;;;;;12.48;100.00;96823.16;5045629;28;20202;-71
2022/10/11 04:58:32;;;;;;;12.23;4.68;;;;;;;12.47;100.00;96831.25;5045849;28;20204;-71
2022/10/11 05:00:59;;;;;;;11.87;4.80;;;;;;;12.43;100.00;96820.22;5045546;28;20246;-69
2022/10/11 05:03:26;;;;;;;12.40;4.60;;;;;;;12.49;100.00;96832.75;5044528;28;20216;-69
2022/10/11 05:05:54;;;;;;;9.73;4.45;;;;;;;12.51;100.00;96828.13;5045615;28;20221;-71
2022/10/11 05:08:22;;;;;;;13.60;4.70;;;;;;;12.41;100.00;96827.50;5046012;28;20205;-70
2022/10/11 05:10:55;;;;;;;10.70;5.15;;;;;;;12.54;100.00;96830.41;5045100;28;20225;-69
2022/10/11 05:13:21;;;;;;;9.40;4.80;;;;;;;12.40;100.00;96831.13;5044700;28;20715;-72
2022/10/11 05:15:48;;;;;;;15.30;5.28;;;;;;;12.38;100.00;96827.84;5045187;28;20205;-70
2022/10/11 05:18:15;;;;;;;15.10;5.10;;;;;;;12.34;100.00;96834.47;5044950;28;20214;-69
2022/10/11 05:20:41;;;;;;;7.95;4.63;;;;;;;12.38;100.00;96841.03;5045246;28;20221;-71
2022/10/11 05:23:09;;;;;;;12.15;5.20;;;;;;;12.45;100.00;96839.38;5044002;28;20213;-71
2022/10/11 05:25:36;;;;;;;12.73;4.53;;;;;;;12.40;100.00;96841.72;5045077;28;20229;-71
2022/10/11 05:28:02;;;;;;;9.47;4.30;;;;;;;12.42;100.00;96845.03;5045124;28;20205;-72
2022/10/11 05:30:29;;;;;;;9.38;4.63;;;;;;;12.41;100.00;96848.66;5044866;28;20217;-69
2022/10/11 05:32:55;;;;;;;10.70;4.57;;;;;;;12.46;100.00;96848.97;5044354;28;20221;-71
2022/10/11 05:35:22;;;;;;;7.70;4.43;;;;;;;12.52;100.00;96850.06;5044926;28;20670;-71
2022/10/11 05:37:48;;;;;;;12.98;4.70;;;;;;;12.46;100.00;96853.41;5043798;28;20471;-71
2022/10/11 05:40:16;;;;;;;16.40;5.00;;;;;;;12.58;100.00;96852.84;5044840;28;21076;-69
2022/10/11 05:42:43;;;;;;;9.97;5.03;;;;;;;12.50;100.00;96858.19;5044395;28;20197;-71
2022/10/11 05:45:09;;;;;;;14.10;4.70;;;;;;;12.60;100.00;96863.25;5044491;28;20231;-71
2022/10/11 05:47:36;;;;;;;10.40;4.67;;;;;;;12.45;100.00;96859.72;5044354;28;20201;-71
2022/10/11 05:50:02;;;;;;;11.73;5.27;;;;;;;12.55;100.00;96865.56;5044304;28;20699;-71
2022/10/11 05:52:30;;;;;;;14.50;4.97;;;;;;;12.57;100.00;96866.25;5044128;28;20637;-72
2022/10/11 05:54:56;;;;;;;10.55;4.68;;;;;;;12.61;100.00;96870.19;5045006;28;20201;-72
2022/10/11 05:57:24;;;;;;;10.50;4.75;;;;;;;12.70;100.00;96871.78;5044817;28;20216;-72
2022/10/11 05:59:51;;;;;;;9.77;4.50;;;;;;;12.68;100.00;96879.03;5044287;28;20204;-71
2022/10/11 06:02:17;;;;;;;9.97;4.63;;;;;;;12.70;100.00;96880.53;5043564;28;20221;-70
2022/10/11 06:04:44;;;;;;;10.97;4.40;;;;;;;12.69;100.00;96878.91;5043739;28;20635;-72
2022/10/11 06:07:10;;;;;;;10.88;5.18;;;;;;;12.76;100.00;96879.03;5044382;28;20212;-71
2022/10/11 06:09:37;;;;;;;13.65;5.28;;;;;;;12.84;100.00;96880.63;5044604;28;20212;-70
2022/10/11 06:12:03;;;;;;;10.82;5.32;;;;;;;12.86;100.00;96875.19;5043941;28;20228;-71
2022/10/11 06:14:31;;;;;;;15.27;5.93;;;;;;;12.93;100.00;96886.69;5043306;28;20215;-71
2022/10/11 06:16:58;;;;;;;12.13;5.18;;;;;;;12.85;100.00;96889.38;5043796;28;20665;-72
2022/10/11 06:19:24;;;;;;;12.30;6.05;;;;;;;12.86;100.00;96896.34;5043874;28;20209;-71
2022/10/11 06:21:51;;;;;;;12.05;5.35;;;;;;;12.93;100.00;96887.53;5044034;28;20225;-71
2022/10/11 06:24:17;;;;;;;15.73;5.38;;;;;;;12.93;100.00;96897.28;5043419;28;20216;-71
2022/10/11 06:26:44;;;;;;;13.18;6.10;;;;;;;12.90;100.00;96892.34;5044015;28;20213;-71
2022/10/11 06:29:10;;;;;;;22.88;8.15;;;;;;;12.94;100.00;96899.75;5043514;28;20216;-70
2022/10/11 06:31:38;;;;;;;19.25;7.15;;;;;;;13.07;100.00;96897.38;5043773;28;20728;-69
2022/10/11 06:34:05;;;;;;;16.43;6.53;;;;;;;13.05;100.00;96903.81;5042633;28;20738;-71
2022/10/11 06:36:31;;;;;;;20.02;6.70;;;;;;;13.07;100.00;96907.09;5043884;28;20201;-71
2022/10/11 06:39:00;;;;;;;17.27;7.65;;;;;;;13.06;100.00;96913.38;5043765;28;20689;-71
2022/10/11 06:41:29;;;;;;;16.23;6.93;;;;;;;13.17;100.00;96905.06;5043666;28;20642;-71
2022/10/11 06:43:57;;;;;;;19.13;6.47;;;;;;;13.16;100.00;96912.19;5043159;28;20220;-71
2022/10/11 06:46:25;;;;;;;14.70;6.25;;;;;;;13.24;100.00;96913.91;5043723;28;20229;-70
2022/10/11 06:48:55;;;;;;;14.67;5.90;;;;;;;13.30;100.00;96911.41;5043235;28;20467;-71
2022/10/11 06:51:22;;;;;;;11.65;6.38;;;;;;;13.29;100.00;96915.06;5043374;28;20236;-71
2022/10/11 06:53:50;;;;;;;12.70;6.05;;;;;;;13.31;100.00;96912.22;5042853;28;20665;-69
2022/10/11 06:56:16;;;;;;;17.80;5.85;;;;;;;13.32;100.00;96917.34;5043544;28;20205;-71
2022/10/11 06:58:43;;;;;;;15.68;6.28;;;;;;;13.35;100.00;96916.16;5043615;28;20205;-71
2022/10/11 07:01:11;;;;;;;16.10;5.95;;;;;;;13.48;100.00;96925.16;5043175;28;20273;-71
2022/10/11 07:03:38;;;;;;;14.57;6.55;;;;;;;13.55;100.00;96916.31;5042928;28;20209;-72
2022/10/11 07:06:08;;;;;;;13.85;6.47;;;;;;;13.72;100.00;96911.69;5042974;28;20220;-72
2022/10/11 07:08:36;;;;;;;17.33;6.72;;;;;;;13.74;100.00;96910.50;5042872;28;20224;-71
2022/10/11 07:11:04;;;;;;;14.52;7.35;;;;;;;13.89;100.00;96915.84;5042829;28;20228;-70
2022/10/11 07:13:31;;;;;;;17.60;8.25;;;;;;;13.95;100.00;96913.31;5042315;28;20201;-71
2022/10/11 07:16:00;;;;;;;21.45;8.00;;;;;;;14.12;100.00;96909.50;5043330;28;20609;-72
2022/10/11 07:18:27;;;;;;;22.30;8.15;;;;;;;14.13;100.00;96921.75;5043180;28;20205;-72
2022/10/11 07:20:54;;;;;;;18.77;8.82;;;;;;;14.26;100.00;96921.94;5042642;28;20736;-71
2022/10/11 07:23:22;;;;;;;20.00;7.13;;;;;;;14.36;100.00;96927.78;5042000;28;20669;-72
2022/10/11 07:25:48;;;;;;;15.45;6.50;;;;;;;14.38;100.00;96921.28;5042845;28;20225;-72
2022/10/11 07:28:15;;;;;;;17.55;6.85;;;;;;;14.47;100.00;96919.34;5042787;28;20584;-72
2022/10/11 07:30:42;;;;;;;16.20;6.93;;;;;;;14.51;100.00;96910.88;5042617;28;20232;-71
2022/10/11 07:33:08;;;;;;;15.75;6.53;;;;;;;14.58;100.00;96916.25;5042336;28;20207;-72
2022/10/11 07:35:35;;;;;;;15.95;6.78;;;;;;;14.73;100.00;96908.06;5042487;28;20193;-70
2022/10/11 07:38:02;;;;;;;14.10;6.78;;;;;;;14.80;100.00;96916.94;5042724;28;20231;-71
2022/10/11 07:40:30;;;;;;;17.45;7.32;;;;;;;14.94;100.00;96923.22;5042580;28;20744;-72
2022/10/11 07:42:57;;;;;;;17.52;6.57;;;;;;;15.02;100.00;96917.78;5041802;28;20206;-71
2022/10/11 07:45:24;;;;;;;17.33;7.28;;;;;;;15.25;100.00;96914.00;5042171;28;20895;-71
2022/10/11 07:47:51;;;;;;;16.60;6.45;;;;;;;15.29;100.00;96912.59;5042516;28;20327;-70
2022/10/11 07:50:17;;;;;;;13.20;6.75;;;;;;;15.28;100.00;96913.59;5041878;28;20712;-72
2022/10/11 07:52:44;;;;;;;17.33;6.78;;;;;;;15.35;100.00;96917.13;5041710;28;20209;-69
2022/10/11 07:55:10;;;;;;;14.70;7.25;;;;;;;15.48;100.00;96918.09;5042190;28;20205;-72
2022/10/11 07:57:38;;;;;;;12.65;6.65;;;;;;;15.52;100.00;96911.38;5042396;28;20197;-71
2022/10/11 08:00:06;;;;;;;18.30;7.15;;;;;;;15.56;100.00;96920.59;5041815;28;20221;-71
2022/10/11 08:02:32;;;;;;;21.42;7.30;;;;;;;15.75;100.00;96913.84;5041802;28;20220;-72
2022/10/11 08:04:59;;;;;;;17.70;7.63;;;;;;;15.83;100.00;96911.03;5042731;28;20583;-72
2022/10/11 08:07:27;;;;;;;16.42;7.00;;;;;;;15.68;100.00;96918.25;5042422;28;20444;-71
2022/10/11 08:09:53;;;;;;;11.90;6.28;;;;;;;15.80;100.00;96924.72;5042132;28;20324;-68
2022/10/11 08:12:20;;;;;;;15.27;7.30;;;;;;;15.84;100.00;96916.16;5041488;28;20319;-71
2022/10/11 08:14:47;;;;;;;18.08;7.05;;;;;;;16.06;100.00;96918.59;5042161;28;20205;-71
2022/10/11 08:17:14;;;;;;;21.90;7.82;;;;;;;15.84;100.00;96923.31;5042019;28;20197;-70
2022/10/11 08:19:40;;;;;;;22.90;8.05;;;;;;;15.90;100.00;96923.38;5042355;28;20198;-71
2022/10/11 08:22:07;;;;;;;21.35;7.50;;;;;;;15.91;100.00;96924.97;5042135;28;20227;-72
2022/10/11 08:24:34;;;;;;;23.48;8.13;;;;;;;15.82;100.00;96928.78;5041352;28;20197;-71
2022/10/11 08:27:00;;;;;;;21.00;7.70;;;;;;;15.89;100.00;96932.34;5042257;28;20228;-70
2022/10/11 08:29:27;;;;;;;19.33;7.97;;;;;;;16.04;100.00;96925.09;5042119;28;20357;-71
2022/10/11 08:31:55;;;;;;;14.63;7.45;;;;;;;16.12;100.00;96933.75;5041925;28;20235;-71
2022/10/11 08:34:22;;;;;;;19.17;7.78;;;;;;;15.98;100.00;96936.50;5041359;28;20205;-72
2022/10/11 08:36:48;;;;;;;16.75;7.97;;;;;;;16.07;100.00;96936.16;5041898;28;20201;-70
2022/10/11 08:39:15;;;;;;;13.80;7.25;;;;;;;16.13;100.00;96940.72;5042063;28;20850;-69
2022/10/11 08:41:47;;;;;;;20.73;7.78;;;;;;;16.27;100.00;96939.81;5042138;28;20217;-72
2022/10/11 08:44:31;;;;;;;16.58;8.20;;;;;;;16.36;100.00;96951.94;5041291;28;20665;-72
2022/10/11 08:47:04;;;;;;;13.68;7.93;;;;;;;16.21;100.00;96947.72;5041707;28;20221;-72
2022/10/11 08:49:33;;;;;;;19.35;8.05;;;;;;;16.25;100.00;96944.47;5041725;28;20220;-72
2022/10/11 08:52:03;;;;;;;18.08;7.63;;;;;;;16.17;100.00;96941.16;5041823;28;20232;-72
2022/10/11 08:54:37;;;;;;;17.13;7.57;;;;;;;16.28;100.00;96946.78;5040926;28;20296;-72
2022/10/11 08:57:06;;;;;;;16.20;7.82;;;;;;;16.10;100.00;96943.75;5042018;28;20224;-72
2022/10/11 08:59:39;;;;;;;15.30;7.07;;;;;;;16.18;100.00;96951.59;5041840;28;20253;-72
2022/10/11 09:02:21;;;;;;;16.60;6.70;;;;;;;16.29;100.00;96945.75;5041512;28;20776;-71
2022/10/11 09:04:51;;;;;;;18.35;6.97;;;;;;;16.37;100.00;96948.28;5041803;28;20228;-71
2022/10/11 09:07:28;;;;;;;17.25;7.65;;;;;;;16.43;100.00;96944.81;5041813;28;20464;-70
2022/10/11 09:10:07;;;;;;;16.95;7.95;;;;;;;16.58;100.00;96950.84;5041649;28;20201;-71
2022/10/11 09:12:45;;;;;;;15.73;6.72;;;;;;;16.57;100.00;96949.19;5042991;28;20693;-71
2022/10/11 09:15:21;;;;;;;19.67;6.85;;;;;;;16.61;100.00;96947.78;5045220;28;20681;-71
2022/10/11 09:18:03;;;;;;;19.70;7.47;;;;;;;16.48;100.00;96951.22;5045517;28;20209;-69
2022/10/11 09:20:51;;;;;;;21.00;6.95;;;;;;;16.46;100.00;96949.75;5044907;28;20216;-72
2022/10/11 09:23:32;;;;;;;12.82;6.63;;;;;;;16.42;100.00;96956.50;5044514;28;20213;-70
2022/10/11 09:26:05;;;;;;;14.88;6.43;;;;;;;16.33;100.00;96946.19;5045042;28;20228;-72
2022/10/11 09:28:45;;;;;;;12.40;5.78;;;;;;;16.40;100.00;96949.72;5045072;28;20498;-72
2022/10/11 09:31:12;;;;;;;20.42;6.50;;;;;;;16.33;100.00;96949.69;5044725;28;20225;-73
2022/10/11 09:33:44;;;;;;;14.95;6.15;;;;;;;16.32;100.00;96945.38;5044125;28;20208;-71
2022/10/11 09:36:19;;;;;;;17.23;6.45;;;;;;;16.21;100.00;96942.41;5044841;28;20201;-71
2022/10/11 09:38:50;;;;;;;18.13;6.05;;;;;;;16.20;100.00;96944.22;5044833;28;20299;-71
2022/10/11 09:41:25;;;;;;;14.40;5.82;;;;;;;16.20;100.00;96944.22;5044462;28;20229;-72
2022/10/11 09:43:52;;;;;;;15.68;6.15;;;;;;;16.18;100.00;96946.25;5044475;28;20205;-71
2022/10/11 09:46:22;;;;;;;14.07;5.78;;;;;;;16.21;100.00;96948.53;5044487;28;20229;-73
2022/10/11 09:48:53;;;;;;;17.20;6.30;;;;;;;16.34;100.00;96948.63;5044541;28;20219;-73
2022/10/11 09:51:22;;;;;;;20.77;6.80;;;;;;;16.38;100.00;96952.59;5044872;28;20229;-72
2022/10/11 09:53:55;;;;;;;22.00;7.03;;;;;;;16.50;100.00;96943.03;5043822;28;20395;-75
2022/10/11 09:56:23;;;;;;;16.15;6.47;;;;;;;16.52;100.00;96955.13;5044822;28;20223;-74
2022/10/11 09:59:05;;;;;;;16.30;6.55;;;;;;;16.66;100.00;96956.84;5044645;28;20197;-71
2022/10/11 10:01:32;;;;;;;15.23;6.07;;;;;;;16.97;100.00;96953.69;5044365;28;20217;-71
2022/10/11 10:04:09;;;;;;;13.10;6.20;;;;;;;17.06;100.00;96948.00;5043787;28;20204;-72
2022/10/11 10:06:37;;;;;;;18.70;6.57;;;;;;;17.30;100.00;96953.63;5043884;28;20225;-71
2022/10/11 10:09:21;;;;;;;20.92;5.78;;;;;;;17.38;100.00;96952.63;5044530;28;20197;-75
2022/10/11 10:11:48;;;;;;;14.25;5.72;;;;;;;17.23;100.00;96952.78;5043899;28;20237;-72
2022/10/11 10:14:24;;;;;;;14.02;5.57;;;;;;;17.61;100.00;96956.56;5043268;28;20349;-71
2022/10/11 10:17:00;;;;;;;16.00;5.60;;;;;;;17.35;100.00;96956.53;5044115;28;20212;-72
2022/10/11 10:19:29;;;;;;;12.95;6.22;;;;;;;17.55;100.00;96957.38;5044466;28;20501;-71
2022/10/11 10:21:56;;;;;;;11.95;5.47;;;;;;;17.26;100.00;96959.53;5043782;28;20720;-73
2022/10/11 10:24:34;;;;;;;17.88;6.03;;;;;;;16.99;100.00;96951.66;5042907;28;20213;-75
2022/10/11 10:27:17;;;;;;;17.08;5.35;;;;;;;17.15;100.00;96952.94;5043954;28;20320;-74
2022/10/11 10:29:58;;;;;;;14.75;5.57;;;;;;;16.95;100.00;96958.41;5042155;28;20209;-72
2022/10/11 10:32:30;;;;;;;13.70;5.28;;;;;;;17.00;100.00;96953.28;5043402;28;20236;-71
2022/10/11 10:35:06;;;;;;;14.07;5.32;;;;;;;17.05;100.00;96948.19;5043957;28;20205;-72
2022/10/11 10:37:38;;;;;;;13.10;5.10;;;;;;;17.06;100.00;96949.84;5043556;28;20201;-71
2022/10/11 10:40:09;;;;;;;12.52;5.32;;;;;;;16.93;100.00;96955.09;5043857;28;20666;-71
2022/10/11 10:42:37;;;;;;;11.93;5.25;;;;;;;17.07;100.00;96962.13;5043220;28;20220;-73
2022/10/11 10:45:07;;;;;;;14.63;5.30;;;;;;;17.10;100.00;96958.03;5043830;28;20678;-71
2022/10/11 10:47:53;;;;;;;14.07;5.30;;;;;;;17.15;100.00;96966.25;5043419;28;20235;-73
2022/10/11 10:50:25;;;;;;;17.60;4.63;;;;;;;16.97;100.00;96965.16;5043216;28;20704;-70
2022/10/11 10:53:05;;;;;;;10.48;4.10;;;;;;;17.04;100.00;96954.53;5043158;28;20205;-71
2022/10/11 10:55:38;;;;;;;14.18;4.30;;;;;;;16.95;100.00;96961.06;5043270;28;20397;-71
2022/10/11 10:58:10;;;;;;;8.40;3.70;;;;;;;16.84;100.00;96967.78;5043575;28;20201;-74
2022/10/11 11:00:43;;;;;;;15.13;4.10;;;;;;;17.03;100.00;96961.72;5042847;28;20225;-71
2022/10/11 11:03:20;;;;;;;18.70;4.30;;;;;;;17.08;100.00;96961.09;5042623;28;20358;-74
2022/10/11 11:05:57;;;;;;;8.10;4.10;;;;;;;17.13;100.00;96967.47;5042778;28;20299;-71
2022/10/11 11:08:38;;;;;;;12.02;4.65;;;;;;;16.88;100.00;96958.38;5043442;28;20209;-71
2022/10/11 11:11:12;;;;;;;9.48;4.15;;;;;;;16.93;100.00;96955.94;5042876;28;20229;-72
2022/10/11 11:13:44;;;;;;;12.13;5.43;;;;;;;16.93;100.00;96955.09;5042503;28;20566;-70
2022/10/11 11:16:19;;;;;;;17.40;5.55;;;;;;;16.72;100.00;96957.88;5043223;28;20204;-73
2022/10/11 11:18:56;;;;;;;13.95;5.53;;;;;;;16.97;100.00;96956.34;5042922;28;20266;-73
2022/10/11 11:21:35;;;;;;;19.90;6.18;;;;;;;16.96;100.00;96958.19;5042601;28;20227;-71
2022/10/11 11:24:13;;;;;;;13.95;5.78;;;;;;;17.09;100.00;96953.75;5042433;28;20208;-73
2022/10/11 11:26:47;;;;;;;11.07;5.80;;;;;;;17.02;100.00;96951.25;5042857;28;20562;-73
2022/10/11 11:29:26;;;;;;;13.35;6.07;;;;;;;17.16;100.00;96946.59;5042581;28;20566;-72
2022/10/11 11:32:10;;;;;;;14.57;5.00;;;;;;;17.26;100.00;96947.06;5042976;28;20235;-71